createdAt,value
2023-02-09T00:01:38.781Z,99095.34
2023-02-09T00:04:06.392Z,99100.47
2023-02-09T00:06:33.973Z,99101.25
2023-02-09T00:09:02.466Z,99095.19
2023-02-09T00:11:49.822Z,99103.88
2023-02-09T00:14:21.692Z,99098.06
2023-02-09T00:16:51.781Z,99091.16
2023-02-09T00:19:20.499Z,99087.56
2023-02-09T00:21:48.711Z,99071.75
2023-02-09T00:24:16.597Z,99078.66
2023-02-09T00:26:44.738Z,99080.34
2023-02-09T00:29:13.164Z,99077.78
2023-02-09T00:31:41.075Z,99079.44
2023-02-09T00:34:09.039Z,99085.59
2023-02-09T00:36:36.516Z,99079.44
2023-02-09T00:39:04.486Z,99074.19
2023-02-09T00:41:50.913Z,99070.50
2023-02-09T00:44:18.878Z,99069.50
2023-02-09T00:46:46.625Z,99068.44
2023-02-09T00:49:14.346Z,99064.91
2023-02-09T00:51:42.259Z,99065.63
2023-02-09T00:54:13.221Z,99059.44
2023-02-09T00:56:40.880Z,99062.91
2023-02-09T00:59:08.551Z,99051.44
2023-02-09T01:01:36.562Z,99052.97
2023-02-09T01:04:04.587Z,99056.31
2023-02-09T01:06:32.291Z,99051.84
2023-02-09T01:09:00.728Z,99050.00
2023-02-09T01:11:29.716Z,99057.81
2023-02-09T01:13:59.844Z,99066.53
2023-02-09T01:16:31.654Z,99061.28
2023-02-09T01:19:03.957Z,99052.63
2023-02-09T01:21:31.930Z,99047.44
2023-02-09T01:23:59.886Z,99053.69
2023-02-09T01:26:27.646Z,99051.06
2023-02-09T01:28:55.314Z,99056.25
2023-02-09T01:31:31.873Z,99053.53
2023-02-09T01:34:02.427Z,99048.72
2023-02-09T01:36:32.048Z,99047.25
2023-02-09T01:39:01.791Z,99048.38
2023-02-09T01:41:30.696Z,99045.25
2023-02-09T01:44:07.188Z,99045.50
2023-02-09T01:46:36.529Z,99046.56
2023-02-09T01:49:21.812Z,99048.63
2023-02-09T01:52:03.391Z,99036.47
2023-02-09T01:54:45.863Z,99037.47
2023-02-09T01:57:23.304Z,99037.75
2023-02-09T02:00:00.456Z,99036.25
2023-02-09T02:02:29.650Z,99035.53
2023-02-09T02:04:57.225Z,99046.28
2023-02-09T02:07:56.438Z,99043.28
2023-02-09T02:10:25.401Z,99035.28
2023-02-09T02:12:54.848Z,99046.84
2023-02-09T02:15:31.099Z,99039.88
2023-02-09T02:18:43.653Z,99029.59
2023-02-09T02:22:02.544Z,99039.56
2023-02-09T02:25:01.980Z,99036.84
2023-02-09T02:28:14.161Z,99041.25
2023-02-09T02:31:28.569Z,99043.94
2023-02-09T02:34:10.658Z,99043.94
2023-02-09T02:37:35.047Z,99037.31
2023-02-09T02:40:31.929Z,99038.22
2023-02-09T02:43:23.149Z,99032.09
2023-02-09T02:46:13.362Z,99035.59
2023-02-09T02:49:17.672Z,99037.59
2023-02-09T02:51:49.178Z,99032.13
2023-02-09T02:54:25.876Z,99034.09
2023-02-09T02:57:05.949Z,99029.06
2023-02-09T02:59:48.365Z,99018.00
2023-02-09T03:02:26.141Z,99006.38
2023-02-09T03:04:56.819Z,99006.97
2023-02-09T03:07:24.680Z,99000.69
2023-02-09T03:09:55.238Z,99004.88
2023-02-09T03:12:59.042Z,99008.56
2023-02-09T03:15:50.081Z,99000.63
2023-02-09T03:18:33.415Z,99003.31
2023-02-09T03:21:24.074Z,99009.22
2023-02-09T03:24:04.246Z,99026.38
2023-02-09T03:26:44.926Z,99028.81
2023-02-09T03:29:15.564Z,99032.38
2023-02-09T03:31:44.096Z,99023.69
2023-02-09T03:34:11.746Z,99024.69
2023-02-09T03:36:40.259Z,99019.56
2023-02-09T03:39:08.606Z,99014.47
2023-02-09T03:41:36.485Z,99013.59
2023-02-09T03:44:22.456Z,99005.66
2023-02-09T03:46:50.078Z,99005.81
2023-02-09T03:49:17.631Z,99009.00
2023-02-09T03:51:45.127Z,99004.44
2023-02-09T03:54:12.640Z,99006.13
2023-02-09T03:56:40.149Z,99003.56
2023-02-09T03:59:07.694Z,99004.44
2023-02-09T04:01:35.823Z,98999.19
2023-02-09T04:04:04.650Z,99007.16
2023-02-09T04:06:33.644Z,99019.56
2023-02-09T04:09:02.866Z,99019.75
2023-02-09T04:11:30.567Z,99019.16
2023-02-09T04:13:58.141Z,99020.03
2023-02-09T04:16:25.846Z,99016.63
2023-02-09T04:18:53.621Z,99017.63
2023-02-09T04:21:21.565Z,99015.84
2023-02-09T04:23:51.342Z,99021.97
2023-02-09T04:26:19.571Z,99019.34
2023-02-09T04:28:47.170Z,99017.63
2023-02-09T04:31:14.922Z,99021.91
2023-02-09T04:33:42.526Z,99021.88
2023-02-09T04:36:11.022Z,99019.34
2023-02-09T04:38:38.679Z,99021.91
2023-02-09T04:41:06.577Z,99021.06
2023-02-09T04:43:34.593Z,99007.97
2023-02-09T04:46:02.345Z,99009.88
2023-02-09T04:48:30.543Z,99012.66
2023-02-09T04:50:58.132Z,99005.91
2023-02-09T04:53:25.721Z,99004.53
2023-02-09T04:55:53.221Z,99014.28
2023-02-09T04:58:40.434Z,99004.00
2023-02-09T05:01:10.487Z,98999.88
2023-02-09T05:03:38.088Z,99001.75
2023-02-09T05:06:06.440Z,98995.53
2023-02-09T05:08:34.113Z,98997.25
2023-02-09T05:11:01.682Z,99001.41
2023-02-09T05:13:29.711Z,98996.88
2023-02-09T05:15:57.190Z,98988.88
2023-02-09T05:18:25.539Z,98988.09
2023-02-09T05:20:53.061Z,98994.19
2023-02-09T05:23:20.712Z,98993.28
2023-02-09T05:25:48.369Z,98995.75
2023-02-09T05:28:16.255Z,98999.97
2023-02-09T05:30:44.342Z,99012.97
2023-02-09T05:33:12.248Z,99006.06
2023-02-09T05:35:39.739Z,99016.47
2023-02-09T05:38:07.907Z,99009.53
2023-02-09T05:40:35.405Z,99007.84
2023-02-09T05:43:03.370Z,99009.78
2023-02-09T05:45:30.989Z,99016.06
2023-02-09T05:47:58.605Z,99017.69
2023-02-09T05:50:26.223Z,99011.78
2023-02-09T05:52:59.009Z,99020.63
2023-02-09T05:55:27.253Z,99025.34
2023-02-09T05:57:54.783Z,99026.44
2023-02-09T06:00:24.865Z,99018.78
2023-02-09T06:02:52.644Z,99022.28
2023-02-09T06:05:22.033Z,99028.56
2023-02-09T06:07:49.561Z,99023.44
2023-02-09T06:10:20.486Z,99035.81
2023-02-09T06:12:48.451Z,99038.44
2023-02-09T06:15:16.512Z,99031.75
2023-02-09T06:17:44.364Z,99033.56
2023-02-09T06:20:12.321Z,99036.97
2023-02-09T06:22:39.874Z,99039.59
2023-02-09T06:25:07.630Z,99033.44
2023-02-09T06:27:36.048Z,99038.50
2023-02-09T06:30:04.501Z,99041.84
2023-02-09T06:32:32.326Z,99042.66
2023-02-09T06:34:59.808Z,99045.19
2023-02-09T06:37:27.369Z,99050.41
2023-02-09T06:39:54.849Z,99063.41
2023-02-09T06:42:22.745Z,99068.44
2023-02-09T06:44:50.605Z,99070.75
2023-02-09T06:47:18.144Z,99068.94
2023-02-09T06:49:45.614Z,99066.25
2023-02-09T06:52:13.244Z,99072.34
2023-02-09T06:54:40.739Z,99073.06
2023-02-09T06:57:08.259Z,99067.84
2023-02-09T06:59:35.741Z,99067.09
2023-02-09T07:02:03.328Z,99057.56
2023-02-09T07:04:30.873Z,99058.41
2023-02-09T07:06:58.384Z,99061.75
2023-02-09T07:09:25.874Z,99075.59
2023-02-09T07:11:53.369Z,99074.75
2023-02-09T07:14:20.897Z,99066.78
2023-02-09T07:16:48.378Z,99077.41
2023-02-09T07:19:15.848Z,99072.03
2023-02-09T07:21:43.393Z,99077.09
2023-02-09T07:24:10.928Z,99075.47
2023-02-09T07:26:38.452Z,99077.91
2023-02-09T07:29:06.000Z,99077.75
2023-02-09T07:31:33.589Z,99076.84
2023-02-09T07:34:01.184Z,99085.44
2023-02-09T07:36:28.946Z,99084.50
2023-02-09T07:38:56.755Z,99093.09
2023-02-09T07:41:25.170Z,99085.19
2023-02-09T07:43:53.374Z,99080.75
2023-02-09T07:46:22.716Z,99085.88
2023-02-09T07:48:51.288Z,99083.16
2023-02-09T07:51:25.373Z,99079.63
2023-02-09T07:53:53.343Z,99094.88
2023-02-09T07:56:21.372Z,99099.56
2023-02-09T07:58:49.109Z,99100.41
2023-02-09T08:01:17.557Z,99102.19
2023-02-09T08:03:48.491Z,99101.19
2023-02-09T08:06:43.040Z,99099.50
2023-02-09T08:09:14.412Z,99099.03
2023-02-09T08:11:58.815Z,99107.63
2023-02-09T08:14:39.631Z,99107.41
2023-02-09T08:17:27.832Z,99121.94
2023-02-09T08:20:10.097Z,99112.19
2023-02-09T08:22:45.111Z,99108.50
2023-02-09T08:25:16.076Z,99110.00
2023-02-09T08:27:44.832Z,99108.06
2023-02-09T08:30:15.001Z,99111.31
2023-02-09T08:32:42.788Z,99106.78
2023-02-09T08:35:11.106Z,99105.75
2023-02-09T08:37:38.620Z,99109.94
2023-02-09T08:40:06.449Z,99103.72
2023-02-09T08:42:33.929Z,99105.06
2023-02-09T08:45:01.463Z,99112.59
2023-02-09T08:47:29.029Z,99106.28
2023-02-09T08:49:56.614Z,99102.50
2023-02-09T08:52:24.106Z,99098.88
2023-02-09T08:54:51.760Z,99103.00
2023-02-09T08:57:19.406Z,99101.16
2023-02-09T08:59:46.924Z,99097.50
2023-02-09T09:02:14.594Z,99106.75
2023-02-09T09:04:42.172Z,99110.09
2023-02-09T09:07:09.926Z,99103.66
2023-02-09T09:09:37.454Z,99104.22
2023-02-09T09:12:05.187Z,99110.91
2023-02-09T09:14:32.820Z,99113.09
2023-02-09T09:17:00.436Z,99112.03
2023-02-09T09:19:29.135Z,99120.47
2023-02-09T09:21:58.522Z,99111.44
2023-02-09T09:24:28.223Z,99107.72
2023-02-09T09:26:55.958Z,99116.25
2023-02-09T09:29:24.181Z,99118.66
2023-02-09T09:31:51.824Z,99120.13
2023-02-09T09:34:19.420Z,99123.34
2023-02-09T09:36:46.919Z,99116.16
2023-02-09T09:39:14.560Z,99120.25
2023-02-09T09:41:45.375Z,99126.13
2023-02-09T09:44:20.164Z,99131.94
2023-02-09T09:46:51.674Z,99130.78
2023-02-09T09:49:31.516Z,99138.69
2023-02-09T09:52:06.936Z,99141.22
2023-02-09T09:54:36.734Z,99149.00
2023-02-09T09:57:15.001Z,99148.16
2023-02-09T09:59:42.679Z,99147.44
2023-02-09T10:02:30.892Z,99152.78
2023-02-09T10:05:24.804Z,99154.31
2023-02-09T10:08:35.165Z,99157.00
2023-02-09T10:11:15.557Z,99157.47
2023-02-09T10:13:54.950Z,99152.84
2023-02-09T10:16:25.427Z,99155.88
2023-02-09T10:18:55.959Z,99147.69
2023-02-09T10:21:27.620Z,99156.19
2023-02-09T10:24:14.077Z,99155.19
2023-02-09T10:26:42.983Z,99152.94
2023-02-09T10:29:13.528Z,99157.03
2023-02-09T10:31:50.523Z,99153.31
2023-02-09T10:34:38.196Z,99153.09
2023-02-09T10:37:17.461Z,99154.38
2023-02-09T10:39:55.522Z,99146.41
2023-02-09T10:42:33.918Z,99144.28
2023-02-09T10:45:13.374Z,99153.59
2023-02-09T10:47:40.915Z,99152.66
2023-02-09T10:50:11.433Z,99147.28
2023-02-09T10:52:59.984Z,99143.81
2023-02-09T10:55:39.364Z,99146.38
2023-02-09T10:58:21.226Z,99137.72
2023-02-09T11:00:53.108Z,99145.34
2023-02-09T11:03:25.333Z,99140.69
2023-02-09T11:06:15.213Z,99132.72
2023-02-09T11:09:06.233Z,99130.94
2023-02-09T11:11:40.119Z,99131.38
2023-02-09T11:14:18.952Z,99131.28
2023-02-09T11:17:25.528Z,99133.91
2023-02-09T11:20:23.164Z,99129.41
2023-02-09T11:23:27.790Z,99123.31
2023-02-09T11:26:20.297Z,99123.59
2023-02-09T11:29:02.056Z,99114.50
2023-02-09T11:31:39.478Z,99105.28
2023-02-09T11:34:26.308Z,99102.41
2023-02-09T11:37:30.581Z,99095.34
2023-02-09T11:40:24.093Z,99097.56
2023-02-09T11:43:12.595Z,99091.44
2023-02-09T11:45:51.963Z,99093.31
2023-02-09T11:48:43.311Z,99095.00
2023-02-09T11:51:23.448Z,99090.16
2023-02-09T11:54:14.625Z,99083.69
2023-02-09T11:56:49.083Z,99084.09
2023-02-09T11:59:40.276Z,99076.84
2023-02-09T12:02:35.912Z,99076.59
2023-02-09T12:05:03.711Z,99076.59
2023-02-09T12:07:54.548Z,99072.00
2023-02-09T12:10:33.836Z,99072.41
2023-02-09T12:13:22.742Z,99067.81
2023-02-09T12:16:17.628Z,99062.16
2023-02-09T12:18:46.288Z,99065.03
2023-02-09T12:21:25.891Z,99067.38
2023-02-09T12:23:53.432Z,99064.66
2023-02-09T12:26:43.382Z,99060.06
2023-02-09T12:29:33.007Z,99066.19
2023-02-09T12:32:03.681Z,99067.69
2023-02-09T12:34:49.700Z,99073.63
2023-02-09T12:37:30.355Z,99061.41
2023-02-09T12:40:07.100Z,99069.53
2023-02-09T12:43:10.230Z,99056.78
2023-02-09T12:45:43.129Z,99058.88
2023-02-09T12:48:13.360Z,99061.78
2023-02-09T12:50:43.943Z,99053.69
2023-02-09T12:53:23.740Z,99053.59
2023-02-09T12:56:01.111Z,99051.41
2023-02-09T12:58:34.822Z,99051.13
2023-02-09T13:01:03.014Z,99052.16
2023-02-09T13:03:33.605Z,99049.13
2023-02-09T13:06:06.292Z,99061.31
2023-02-09T13:08:45.316Z,99066.41
2023-02-09T13:11:27.747Z,99064.22
2023-02-09T13:14:07.449Z,99062.81
2023-02-09T13:17:10.143Z,99060.34
2023-02-09T13:19:57.862Z,99059.22
2023-02-09T13:23:16.772Z,99055.00
2023-02-09T13:25:44.950Z,99070.84
2023-02-09T13:28:17.230Z,99068.47
2023-02-09T13:30:46.420Z,99063.72
2023-02-09T13:33:19.299Z,99066.13
2023-02-09T13:36:25.082Z,99064.50
2023-02-09T13:38:53.671Z,99057.03
2023-02-09T13:41:27.146Z,99062.69
2023-02-09T13:43:54.746Z,99063.50
2023-02-09T13:46:31.344Z,99060.25
2023-02-09T13:49:21.793Z,99060.63
2023-02-09T13:52:17.066Z,99054.91
2023-02-09T13:54:44.634Z,99056.22
2023-02-09T13:58:01.895Z,99062.03
2023-02-09T14:00:52.305Z,99054.31
2023-02-09T14:03:25.786Z,99065.78
2023-02-09T14:06:09.265Z,99059.88
2023-02-09T14:08:40.479Z,99055.88
2023-02-09T14:11:44.064Z,99067.50
2023-02-09T14:14:26.277Z,99066.03
2023-02-09T14:17:24.306Z,99074.06
2023-02-09T14:19:55.149Z,99079.47
2023-02-09T14:22:39.392Z,99081.06
2023-02-09T14:25:13.200Z,99080.84
2023-02-09T14:27:47.940Z,99077.34
2023-02-09T14:30:34.065Z,99078.94
2023-02-09T14:33:03.773Z,99080.97
2023-02-09T14:35:41.820Z,99082.88
2023-02-09T14:38:39.661Z,99086.03
2023-02-09T14:41:29.901Z,99091.56
2023-02-09T14:44:17.869Z,99088.19
2023-02-09T14:47:00.182Z,99094.25
2023-02-09T14:49:29.396Z,99102.94
2023-02-09T14:52:15.018Z,99097.63
2023-02-09T14:54:50.195Z,99094.13
2023-02-09T14:57:18.053Z,99087.34
2023-02-09T14:59:45.899Z,99085.44
2023-02-09T15:02:22.133Z,99091.34
2023-02-09T15:04:49.664Z,99087.97
2023-02-09T15:07:37.085Z,99090.41
2023-02-09T15:10:18.178Z,99094.31
2023-02-09T15:12:45.953Z,99092.72
2023-02-09T15:15:19.713Z,99093.88
2023-02-09T15:17:47.527Z,99090.59
2023-02-09T15:20:18.598Z,99094.50
2023-02-09T15:22:46.173Z,99097.06
2023-02-09T15:25:14.603Z,99092.41
2023-02-09T15:27:51.905Z,99097.66
2023-02-09T15:30:24.304Z,99105.31
2023-02-09T15:32:52.844Z,99105.50
2023-02-09T15:35:25.542Z,99102.75
2023-02-09T15:37:59.615Z,99110.50
2023-02-09T15:40:54.505Z,99102.31
2023-02-09T15:43:42.978Z,99105.03
2023-02-09T15:46:30.092Z,99103.47
2023-02-09T15:48:57.718Z,99107.47
2023-02-09T15:51:31.183Z,99112.88
2023-02-09T15:54:03.036Z,99106.66
2023-02-09T15:56:30.869Z,99108.66
2023-02-09T15:59:03.394Z,99110.53
2023-02-09T16:01:34.445Z,99116.72
2023-02-09T16:04:13.468Z,99107.47
2023-02-09T16:06:50.212Z,99120.84
2023-02-09T16:09:23.349Z,99121.03
2023-02-09T16:11:51.143Z,99125.03
2023-02-09T16:14:21.739Z,99125.41
2023-02-09T16:16:49.918Z,99134.44
2023-02-09T16:19:18.022Z,99123.31
2023-02-09T16:21:53.388Z,99135.88
2023-02-09T16:24:37.137Z,99146.44
2023-02-09T16:27:23.917Z,99140.03
2023-02-09T16:29:51.451Z,99153.41
2023-02-09T16:32:22.404Z,99155.13
2023-02-09T16:34:51.427Z,99154.63
2023-02-09T16:37:31.271Z,99163.59
2023-02-09T16:40:00.846Z,99157.28
2023-02-09T16:42:29.336Z,99161.91
2023-02-09T16:44:56.961Z,99154.94
2023-02-09T16:47:27.922Z,99159.47
2023-02-09T16:50:03.504Z,99171.03
2023-02-09T16:52:31.255Z,99171.25
2023-02-09T16:55:04.131Z,99169.59
2023-02-09T16:57:31.678Z,99170.66
2023-02-09T16:59:59.287Z,99173.38
2023-02-09T17:02:39.047Z,99178.94
2023-02-09T17:05:22.031Z,99184.69
2023-02-09T17:08:03.089Z,99188.44
2023-02-09T17:10:34.567Z,99189.56
2023-02-09T17:13:04.536Z,99197.84
2023-02-09T17:15:41.318Z,99198.09
2023-02-09T17:18:16.946Z,99190.63
2023-02-09T17:20:51.525Z,99196.94
2023-02-09T17:23:23.647Z,99190.97
2023-02-09T17:25:54.910Z,99190.50
2023-02-09T17:28:24.793Z,99183.78
2023-02-09T17:31:00.603Z,99184.03
2023-02-09T17:33:33.762Z,99192.13
2023-02-09T17:38:50.673Z,99187.38
2023-02-09T17:41:43.101Z,99182.59
2023-02-09T17:44:24.125Z,99185.66
2023-02-09T17:46:56.508Z,99186.63
2023-02-09T17:49:23.996Z,99188.56
2023-02-09T17:51:52.822Z,99187.72
2023-02-09T17:54:21.223Z,99185.59
2023-02-09T17:56:48.787Z,99197.13
2023-02-09T17:59:19.528Z,99185.75
2023-02-09T18:01:51.751Z,99188.56
2023-02-09T18:04:23.058Z,99199.28
2023-02-09T18:06:50.635Z,99206.34
2023-02-09T18:09:18.228Z,99208.22
2023-02-09T18:11:45.853Z,99209.22
2023-02-09T18:14:15.933Z,99216.34
2023-02-09T18:16:44.397Z,99215.66
2023-02-09T18:19:12.437Z,99220.09
2023-02-09T18:21:50.411Z,99220.34
2023-02-09T18:24:20.335Z,99219.59
2023-02-09T18:26:49.823Z,99224.25
2023-02-09T18:29:20.042Z,99222.63
2023-02-09T18:31:47.653Z,99227.06
2023-02-09T18:34:15.615Z,99245.66
2023-02-09T18:36:43.235Z,99232.47
2023-02-09T18:39:10.795Z,99243.16
2023-02-09T18:41:38.344Z,99242.56
2023-02-09T18:44:05.866Z,99247.91
2023-02-09T18:46:33.655Z,99243.50
2023-02-09T18:49:03.452Z,99239.25
2023-02-09T18:51:32.361Z,99247.22
2023-02-09T18:54:00.198Z,99254.34
2023-02-09T18:56:28.480Z,99253.50
2023-02-09T18:58:56.056Z,99256.22
2023-02-09T19:01:24.310Z,99261.81
2023-02-09T19:03:53.135Z,99257.47
2023-02-09T19:06:22.247Z,99260.41
2023-02-09T19:08:50.452Z,99265.22
2023-02-09T19:11:21.743Z,99262.66
2023-02-09T19:14:08.184Z,99263.75
2023-02-09T19:16:36.772Z,99272.50
2023-02-09T19:19:04.570Z,99276.84
2023-02-09T19:21:32.295Z,99271.59
2023-02-09T19:23:59.954Z,99273.44
2023-02-09T19:26:27.488Z,99276.06
2023-02-09T19:28:57.483Z,99277.84
2023-02-09T19:31:25.247Z,99281.25
2023-02-09T19:33:57.345Z,99286.50
2023-02-09T19:36:27.834Z,99290.09
2023-02-09T19:38:58.279Z,99281.34
2023-02-09T19:41:26.040Z,99277.84
2023-02-09T19:43:57.904Z,99284.03
2023-02-09T19:46:25.971Z,99285.72
2023-02-09T19:48:53.820Z,99285.91
2023-02-09T19:51:22.394Z,99286.03
2023-02-09T19:53:50.530Z,99281.63
2023-02-09T19:56:23.259Z,99284.13
2023-02-09T19:58:51.192Z,99285.19
2023-02-09T20:01:19.431Z,99288.91
2023-02-09T20:03:49.330Z,99290.78
2023-02-09T20:06:16.986Z,99282.94
2023-02-09T20:08:45.273Z,99276.91
2023-02-09T20:11:17.853Z,99284.03
2023-02-09T20:13:48.534Z,99287.44
2023-02-09T20:16:26.065Z,99294.31
2023-02-09T20:18:54.610Z,99288.84
2023-02-09T20:21:24.130Z,99292.25
2023-02-09T20:23:56.219Z,99290.47
2023-02-09T20:26:32.936Z,99293.81
2023-02-09T20:29:05.291Z,99292.72
2023-02-09T20:31:36.701Z,99294.34
2023-02-09T20:34:07.395Z,99298.63
2023-02-09T20:36:38.133Z,99292.47
2023-02-09T20:39:08.149Z,99295.09
2023-02-09T20:41:36.127Z,99295.97
2023-02-09T20:44:22.321Z,99307.13
2023-02-09T20:46:55.915Z,99307.91
2023-02-09T20:49:31.053Z,99311.41
2023-02-09T20:51:58.943Z,99321.84
2023-02-09T20:54:27.179Z,99322.72
2023-02-09T20:56:54.700Z,99326.25
2023-02-09T20:59:22.316Z,99330.63
2023-02-09T21:01:50.137Z,99322.72
2023-02-09T21:04:18.161Z,99320.94
2023-02-09T21:06:45.687Z,99323.63
2023-02-09T21:09:15.097Z,99329.03
2023-02-09T21:11:42.724Z,99325.63
2023-02-09T21:14:21.730Z,99321.50
2023-02-09T21:16:58.210Z,99314.81
2023-02-09T21:19:25.735Z,99323.69
2023-02-09T21:21:53.479Z,99328.19
2023-02-09T21:24:21.310Z,99330.97
2023-02-09T21:26:48.823Z,99333.81
2023-02-09T21:29:16.485Z,99343.63
2023-02-09T21:31:44.805Z,99343.16
2023-02-09T21:34:16.542Z,99343.34
2023-02-09T21:36:44.289Z,99338.97
2023-02-09T21:39:12.461Z,99341.75
2023-02-09T21:41:58.429Z,99341.91
2023-02-09T21:44:25.981Z,99342.75
2023-02-09T21:46:54.422Z,99349.88
2023-02-09T21:49:22.665Z,99347.25
2023-02-09T21:51:50.322Z,99353.44
2023-02-09T21:54:18.802Z,99354.28
2023-02-09T21:56:46.344Z,99354.34
2023-02-09T21:59:13.865Z,99354.41
2023-02-09T22:01:42.473Z,99358.06
2023-02-09T22:04:10.077Z,99358.13
2023-02-09T22:06:37.647Z,99360.69
2023-02-09T22:09:06.280Z,99354.50
2023-02-09T22:11:34.036Z,99356.28
2023-02-09T22:14:01.716Z,99362.31
2023-02-09T22:16:29.496Z,99366.88
2023-02-09T22:18:58.403Z,99362.47
2023-02-09T22:21:26.145Z,99376.47
2023-02-09T22:23:54.289Z,99377.19
2023-02-09T22:26:22.011Z,99382.41
2023-02-09T22:28:49.680Z,99383.31
2023-02-09T22:31:20.700Z,99375.28
2023-02-09T22:33:53.764Z,99384.81
2023-02-09T22:36:23.251Z,99382.16
2023-02-09T22:38:51.663Z,99383.78
2023-02-09T22:41:22.775Z,99379.53
2023-02-09T22:44:06.812Z,99379.59
2023-02-09T22:46:39.466Z,99380.31
2023-02-09T22:49:18.263Z,99383.84
2023-02-09T22:51:47.703Z,99382.31
2023-02-09T22:54:17.888Z,99394.63
2023-02-09T22:56:45.827Z,99398.03
2023-02-09T22:59:15.526Z,99388.22
2023-02-09T23:01:43.529Z,99392.69
2023-02-09T23:04:11.680Z,99400.53
2023-02-09T23:06:39.381Z,99396.19
2023-02-09T23:09:08.205Z,99399.75
2023-02-09T23:11:36.512Z,99397.13
2023-02-09T23:14:10.134Z,99397.91
2023-02-09T23:16:40.948Z,99398.75
2023-02-09T23:19:13.191Z,99397.91
2023-02-09T23:21:45.493Z,99400.53
2023-02-09T23:24:15.543Z,99403.22
2023-02-09T23:26:43.057Z,99405.00
2023-02-09T23:29:14.472Z,99399.75
2023-02-09T23:31:43.861Z,99400.59
2023-02-09T23:34:21.734Z,99395.47
2023-02-09T23:36:49.472Z,99398.97
2023-02-09T23:39:21.058Z,99402.38
2023-02-09T23:41:48.778Z,99402.38
2023-02-09T23:44:16.315Z,99399.75
2023-02-09T23:46:44.659Z,99396.19
2023-02-09T23:49:12.900Z,99395.31
2023-02-09T23:51:40.428Z,99401.50
2023-02-09T23:54:08.163Z,99399.81
2023-02-09T23:56:38.834Z,99404.22
2023-02-09T23:59:12.790Z,99401.50
